createdAt,value
2022-10-29T00:00:55.695Z,14.13
2022-10-29T00:03:25.192Z,13.82
2022-10-29T00:06:01.751Z,13.73
2022-10-29T00:08:31.177Z,13.55
2022-10-29T00:11:08.252Z,12.88
2022-10-29T00:13:36.718Z,12.52
2022-10-29T00:16:09.497Z,12.52
2022-10-29T00:18:37.656Z,10.68
2022-10-29T00:21:07.625Z,11.30
2022-10-29T00:23:36.152Z,10.50
2022-10-29T00:26:05.414Z,9.88
2022-10-29T00:28:35.315Z,9.85
2022-10-29T00:31:04.657Z,7.70
2022-10-29T00:33:32.794Z,7.90
2022-10-29T00:36:02.473Z,8.43
2022-10-29T00:38:34.801Z,7.55
2022-10-29T00:41:04.307Z,7.82
2022-10-29T00:43:38.424Z,7.32
2022-10-29T00:46:09.901Z,7.43
2022-10-29T00:48:43.937Z,7.13
2022-10-29T00:51:14.265Z,6.90
2022-10-29T00:53:45.717Z,6.30
2022-10-29T00:56:14.995Z,7.05
2022-10-29T00:58:45.330Z,6.28
2022-10-29T01:01:13.825Z,5.82
2022-10-29T01:03:42.047Z,5.57
2022-10-29T01:06:10.354Z,6.28
2022-10-29T01:08:38.765Z,7.53
2022-10-29T01:11:17.196Z,6.00
2022-10-29T01:14:02.643Z,5.68
2022-10-29T01:16:39.304Z,6.60
2022-10-29T01:19:14.886Z,5.97
2022-10-29T01:21:46.283Z,5.20
2022-10-29T01:25:00.084Z,6.47
2022-10-29T01:27:47.820Z,6.15
2022-10-29T01:30:24.646Z,5.93
2022-10-29T01:33:08.705Z,6.07
2022-10-29T01:35:46.303Z,6.07
2022-10-29T01:38:25.737Z,5.32
2022-10-29T01:41:01.165Z,6.35
2022-10-29T01:43:34.622Z,6.35
2022-10-29T01:46:09.335Z,6.18
2022-10-29T01:48:43.527Z,6.10
2022-10-29T01:53:42.963Z,6.40
2022-10-29T01:56:11.019Z,5.45
2022-10-29T01:58:42.212Z,6.60
2022-10-29T02:01:24.231Z,5.18
2022-10-29T02:04:02.330Z,5.72
2022-10-29T02:06:40.288Z,5.57
2022-10-29T02:09:16.925Z,6.30
2022-10-29T02:11:49.787Z,5.95
2022-10-29T02:14:23.456Z,5.65
2022-10-29T02:16:52.208Z,7.85
2022-10-29T02:19:21.637Z,5.32
2022-10-29T02:21:52.103Z,5.82
2022-10-29T02:24:20.230Z,5.18
2022-10-29T02:26:48.235Z,5.65
2022-10-29T02:29:16.299Z,5.80
2022-10-29T02:31:44.527Z,6.68
2022-10-29T02:34:12.720Z,6.75
2022-10-29T02:36:42.114Z,5.90
2022-10-29T02:39:10.188Z,5.82
2022-10-29T02:41:38.162Z,6.20
2022-10-29T02:44:06.241Z,6.43
2022-10-29T02:46:36.235Z,6.60
2022-10-29T02:49:04.317Z,7.05
2022-10-29T02:51:32.441Z,8.30
2022-10-29T02:54:01.954Z,7.82
2022-10-29T02:56:30.029Z,9.00
2022-10-29T02:58:58.261Z,7.78
2022-10-29T03:01:26.513Z,8.98
2022-10-29T03:03:54.668Z,7.80
2022-10-29T03:06:22.878Z,6.82
2022-10-29T03:08:50.894Z,7.32
2022-10-29T03:11:20.334Z,7.22
2022-10-29T03:13:48.528Z,7.35
2022-10-29T03:16:16.842Z,6.65
2022-10-29T03:18:44.912Z,8.57
2022-10-29T03:21:13.006Z,7.15
2022-10-29T03:23:40.962Z,6.90
2022-10-29T03:26:10.694Z,7.93
2022-10-29T03:28:40.263Z,7.70
2022-10-29T03:31:08.305Z,7.68
2022-10-29T03:33:37.123Z,7.35
2022-10-29T03:36:07.586Z,8.25
2022-10-29T03:38:36.215Z,7.57
2022-10-29T03:41:08.665Z,9.07
2022-10-29T03:43:36.929Z,8.25
2022-10-29T03:46:06.886Z,8.55
2022-10-29T03:48:35.145Z,7.53
2022-10-29T03:51:06.365Z,9.50
2022-10-29T03:53:35.861Z,8.75
2022-10-29T03:56:04.810Z,8.85
2022-10-29T03:58:33.358Z,8.35
2022-10-29T04:01:03.300Z,8.65
2022-10-29T04:03:34.440Z,8.27
2022-10-29T04:06:04.154Z,7.53
2022-10-29T04:08:32.228Z,7.03
2022-10-29T04:11:00.314Z,7.82
2022-10-29T04:13:28.707Z,7.60
2022-10-29T04:15:57.465Z,7.50
2022-10-29T04:18:25.894Z,11.10
2022-10-29T04:28:18.150Z,9.00
2022-10-29T04:29:20.342Z,7.70
2022-10-29T04:31:48.561Z,8.20
2022-10-29T04:34:16.821Z,7.85
2022-10-29T04:36:46.932Z,9.35
2022-10-29T04:39:18.281Z,9.50
2022-10-29T04:41:49.889Z,8.50
2022-10-29T04:44:18.084Z,8.13
2022-10-29T04:46:46.220Z,7.72
2022-10-29T04:49:14.640Z,9.52
2022-10-29T04:51:42.930Z,14.75
2022-10-29T04:54:12.504Z,12.77
2022-10-29T04:56:40.667Z,10.65
2022-10-29T04:59:08.642Z,9.57
2022-10-29T05:01:37.190Z,8.63
2022-10-29T05:04:05.766Z,8.90
2022-10-29T05:06:33.786Z,8.40
2022-10-29T05:09:02.144Z,8.45
2022-10-29T05:11:31.530Z,8.50
2022-10-29T05:13:59.571Z,10.57
2022-10-29T05:16:27.821Z,10.35
2022-10-29T05:18:55.975Z,9.38
2022-10-29T05:21:24.347Z,9.82
2022-10-29T05:23:52.416Z,10.32
2022-10-29T05:26:20.577Z,12.38
2022-10-29T05:28:52.163Z,11.20
2022-10-29T05:31:20.275Z,10.38
2022-10-29T05:33:50.034Z,9.63
2022-10-29T05:36:20.803Z,9.50
2022-10-29T05:38:48.796Z,9.50
2022-10-29T05:41:16.977Z,10.55
2022-10-29T05:43:45.049Z,10.27
2022-10-29T05:46:14.409Z,9.70
2022-10-29T05:48:42.784Z,11.93
2022-10-29T05:51:10.823Z,10.75
2022-10-29T05:53:38.990Z,10.45
2022-10-29T05:56:08.119Z,13.27
2022-10-29T05:58:36.309Z,13.13
2022-10-29T06:01:07.835Z,14.50
2022-10-29T06:03:38.283Z,14.93
2022-10-29T06:06:06.569Z,12.35
2022-10-29T06:08:34.715Z,11.45
2022-10-29T06:11:03.829Z,15.85
2022-10-29T06:13:32.143Z,16.17
2022-10-29T06:16:01.251Z,17.05
2022-10-29T06:18:29.367Z,17.65
2022-10-29T06:21:00.854Z,18.00
2022-10-29T06:23:29.508Z,17.15
2022-10-29T06:26:00.524Z,17.90
2022-10-29T06:28:33.767Z,18.20
2022-10-29T06:31:03.225Z,15.98
2022-10-29T06:33:31.311Z,16.65
2022-10-29T06:36:01.384Z,15.02
2022-10-29T06:38:29.522Z,17.20
2022-10-29T06:40:57.577Z,17.40
2022-10-29T06:43:25.729Z,14.38
2022-10-29T06:45:53.890Z,14.05
2022-10-29T06:48:22.822Z,16.00
2022-10-29T06:50:51.133Z,17.95
2022-10-29T06:53:21.427Z,17.58
2022-10-29T06:55:49.692Z,18.58
2022-10-29T06:58:20.667Z,18.48
2022-10-29T07:00:49.592Z,14.52
2022-10-29T07:03:18.881Z,16.50
2022-10-29T07:05:48.406Z,15.20
2022-10-29T07:08:16.580Z,14.07
2022-10-29T07:10:45.920Z,15.00
2022-10-29T07:13:14.040Z,15.98
2022-10-29T07:15:42.089Z,17.08
2022-10-29T07:18:11.556Z,18.20
2022-10-29T07:20:41.590Z,15.20
2022-10-29T07:23:10.568Z,14.43
2022-10-29T07:25:39.750Z,14.52
2022-10-29T07:28:11.763Z,14.77
2022-10-29T07:30:40.565Z,14.25
2022-10-29T07:33:08.744Z,13.40
2022-10-29T07:35:37.069Z,11.43
2022-10-29T07:38:10.904Z,11.70
2022-10-29T07:43:10.382Z,12.23
2022-10-29T07:45:38.501Z,11.10
2022-10-29T07:48:08.474Z,11.60
2022-10-29T07:50:37.407Z,13.02
2022-10-29T07:53:06.605Z,13.38
2022-10-29T07:55:35.068Z,10.90
2022-10-29T07:58:04.887Z,10.40
2022-10-29T08:00:36.210Z,9.38
2022-10-29T08:03:04.738Z,10.45
2022-10-29T08:05:33.709Z,8.32
2022-10-29T08:08:01.890Z,8.05
2022-10-29T08:10:31.223Z,7.88
2022-10-29T08:13:01.665Z,8.63
2022-10-29T08:15:32.046Z,8.15
2022-10-29T08:18:02.123Z,9.23
2022-10-29T08:20:31.060Z,7.15
2022-10-29T08:23:01.653Z,8.18
2022-10-29T08:25:30.523Z,7.10
2022-10-29T08:28:04.361Z,6.22
2022-10-29T08:30:33.207Z,6.72
2022-10-29T08:33:02.723Z,6.70
2022-10-29T08:35:31.218Z,6.22
2022-10-29T08:37:59.904Z,9.52
2022-10-29T08:40:39.012Z,6.40
2022-10-29T08:43:47.371Z,6.65
2022-10-29T08:46:21.936Z,6.65
2022-10-29T08:51:25.433Z,7.30
2022-10-29T08:54:25.056Z,7.00
2022-10-29T08:56:48.813Z,6.60
2022-10-29T08:59:19.226Z,7.50
2022-10-29T09:01:47.533Z,8.68
2022-10-29T09:04:24.561Z,9.30
2022-10-29T09:07:22.165Z,8.00
2022-10-29T09:09:57.738Z,7.25
2022-10-29T09:12:46.617Z,7.38
2022-10-29T09:15:40.908Z,7.70
2022-10-29T09:18:30.555Z,7.03
2022-10-29T09:21:09.216Z,5.88
2022-10-29T09:23:53.771Z,7.28
2022-10-29T09:29:05.435Z,6.60
2022-10-29T09:31:40.925Z,8.05
2022-10-29T09:34:18.027Z,7.07
2022-10-29T09:36:48.627Z,6.55
2022-10-29T09:39:24.670Z,6.72
2022-10-29T09:41:54.816Z,7.32
2022-10-29T09:44:25.914Z,6.53
2022-10-29T09:47:09.729Z,7.65
2022-10-29T09:49:52.913Z,7.05
2022-10-29T09:52:25.081Z,6.97
2022-10-29T09:54:55.417Z,7.85
2022-10-29T09:57:25.951Z,8.25
2022-10-29T09:59:57.893Z,7.13
2022-10-29T10:02:34.793Z,6.60
2022-10-29T10:05:06.564Z,7.15
2022-10-29T10:07:36.275Z,7.80
2022-10-29T10:10:06.345Z,6.55
2022-10-29T10:12:47.162Z,7.13
2022-10-29T10:15:26.417Z,8.20
2022-10-29T10:17:56.922Z,7.05
2022-10-29T10:20:37.579Z,6.47
2022-10-29T10:23:22.571Z,5.88
2022-10-29T10:25:51.974Z,4.43
2022-10-29T10:28:21.980Z,4.57
2022-10-29T10:31:09.379Z,5.93
2022-10-29T10:33:44.638Z,5.90
2022-10-29T10:36:12.710Z,5.47
2022-10-29T10:38:45.130Z,5.97
2022-10-29T10:41:14.675Z,4.75
2022-10-29T10:43:44.974Z,5.50
2022-10-29T10:46:18.640Z,6.00
2022-10-29T10:48:57.293Z,6.30
2022-10-29T10:51:29.005Z,4.63
2022-10-29T10:53:58.886Z,3.95
2022-10-29T10:56:26.940Z,4.50
2022-10-29T10:59:03.048Z,4.68
2022-10-29T11:01:35.849Z,6.15
2022-10-29T11:04:14.742Z,4.53
2022-10-29T11:06:47.616Z,6.32
2022-10-29T11:09:23.720Z,6.95
2022-10-29T11:11:59.026Z,4.78
2022-10-29T11:14:32.699Z,5.82
2022-10-29T11:17:03.907Z,5.07
2022-10-29T11:19:39.480Z,5.30
2022-10-29T11:22:13.859Z,7.40
2022-10-29T11:24:48.740Z,6.13
2022-10-29T11:27:26.455Z,4.35
2022-10-29T11:30:03.724Z,7.78
2022-10-29T11:32:41.655Z,5.78
2022-10-29T11:35:13.305Z,8.57
2022-10-29T11:37:48.688Z,7.90
2022-10-29T11:40:22.758Z,8.15
2022-10-29T11:42:51.065Z,7.63
2022-10-29T11:45:30.918Z,6.68
2022-10-29T11:48:21.635Z,7.70
2022-10-29T11:50:58.103Z,7.85
2022-10-29T11:53:38.603Z,5.80
2022-10-29T11:56:15.030Z,7.97
2022-10-29T11:58:53.184Z,8.60
2022-10-29T12:01:32.383Z,8.02
2022-10-29T12:04:23.963Z,8.25
2022-10-29T12:07:13.519Z,7.07
2022-10-29T12:10:12.549Z,8.90
2022-10-29T12:12:48.393Z,6.72
2022-10-29T12:15:25.539Z,6.18
2022-10-29T12:18:05.641Z,7.75
2022-10-29T12:20:42.120Z,8.00
2022-10-29T12:23:23.170Z,6.63
2022-10-29T12:26:00.085Z,7.13
2022-10-29T12:28:39.035Z,7.95
2022-10-29T12:31:19.142Z,7.68
2022-10-29T12:33:52.813Z,8.52
2022-10-29T12:36:31.347Z,7.13
2022-10-29T12:39:02.164Z,7.05
2022-10-29T12:41:37.100Z,5.40
2022-10-29T12:44:14.955Z,5.68
2022-10-29T12:46:48.151Z,5.85
2022-10-29T12:49:24.325Z,6.93
2022-10-29T12:54:32.723Z,6.65
2022-10-29T12:57:30.102Z,6.30
2022-10-29T13:00:46.330Z,7.38
2022-10-29T13:03:44.279Z,7.28
2022-10-29T13:06:49.667Z,8.05
2022-10-29T13:09:20.293Z,7.50
2022-10-29T13:11:50.599Z,8.55
2022-10-29T13:14:24.939Z,9.50
2022-10-29T13:16:56.351Z,7.78
2022-10-29T13:19:37.392Z,6.63
2022-10-29T13:22:29.393Z,7.47
2022-10-29T13:25:45.559Z,7.53
2022-10-29T13:28:50.692Z,7.07
2022-10-29T13:31:48.817Z,6.75
2022-10-29T13:34:55.609Z,6.10
2022-10-29T13:37:54.812Z,7.55
2022-10-29T13:41:03.186Z,9.60
2022-10-29T13:43:33.111Z,9.68
2022-10-29T13:46:20.366Z,7.38
2022-10-29T13:48:49.731Z,11.20
2022-10-29T13:51:25.890Z,9.68
2022-10-29T13:53:58.638Z,9.50
2022-10-29T13:56:33.343Z,8.35
2022-10-29T13:59:03.131Z,10.20
2022-10-29T14:01:34.512Z,8.15
2022-10-29T14:04:06.560Z,9.73
2022-10-29T14:06:38.715Z,7.93
2022-10-29T14:09:16.105Z,8.30
2022-10-29T14:11:49.443Z,10.90
2022-10-29T14:14:25.953Z,9.30
2022-10-29T14:17:11.067Z,12.40
2022-10-29T14:19:39.083Z,10.75
2022-10-29T14:22:17.894Z,12.70
2022-10-29T14:24:46.303Z,11.88
2022-10-29T14:27:16.039Z,8.65
2022-10-29T14:29:44.149Z,10.85
2022-10-29T14:32:15.639Z,10.68
2022-10-29T14:34:45.419Z,12.70
2022-10-29T14:37:18.295Z,11.90
2022-10-29T14:39:57.952Z,11.07
2022-10-29T14:42:31.443Z,10.75
2022-10-29T14:45:03.295Z,9.52
2022-10-29T14:47:34.922Z,9.05
2022-10-29T14:50:05.816Z,11.77
2022-10-29T14:52:35.696Z,9.95
2022-10-29T14:55:08.935Z,10.55
2022-10-29T14:57:41.661Z,10.10
2022-10-29T15:00:24.301Z,10.18
2022-10-29T15:02:56.002Z,12.15
2022-10-29T15:05:27.002Z,9.88
2022-10-29T15:08:06.230Z,11.10
2022-10-29T15:10:46.079Z,11.60
2022-10-29T15:13:25.310Z,10.18
2022-10-29T15:15:56.548Z,12.50
2022-10-29T15:18:27.494Z,13.13
2022-10-29T15:20:57.287Z,13.13
2022-10-29T15:23:28.516Z,11.95
2022-10-29T15:26:02.244Z,12.35
2022-10-29T15:28:32.094Z,10.80
2022-10-29T15:31:02.793Z,12.68
2022-10-29T15:33:33.234Z,12.88
2022-10-29T15:36:03.451Z,13.20
2022-10-29T15:39:09.642Z,12.23
2022-10-29T15:41:40.402Z,12.52
2022-10-29T15:44:33.673Z,12.50
2022-10-29T15:47:03.464Z,11.18
2022-10-29T15:49:33.117Z,12.82
2022-10-29T15:52:01.904Z,13.50
2022-10-29T15:54:30.430Z,10.38
2022-10-29T15:56:58.486Z,10.30
2022-10-29T15:59:27.510Z,9.95
2022-10-29T16:01:55.625Z,11.27
2022-10-29T16:04:23.902Z,12.07
2022-10-29T16:06:53.271Z,11.10
2022-10-29T16:09:22.078Z,12.32
2022-10-29T16:11:50.811Z,12.60
2022-10-29T16:14:18.968Z,11.40
2022-10-29T16:16:47.132Z,13.30
2022-10-29T16:19:15.101Z,11.73
2022-10-29T16:21:43.065Z,11.88
2022-10-29T16:24:16.002Z,10.18
2022-10-29T16:26:44.064Z,11.48
2022-10-29T16:29:16.024Z,12.48
2022-10-29T16:31:44.462Z,12.25
2022-10-29T16:34:15.165Z,12.85
2022-10-29T16:36:45.329Z,13.60
2022-10-29T16:39:14.837Z,12.48
2022-10-29T16:41:42.873Z,12.85
2022-10-29T16:44:10.879Z,14.10
2022-10-29T16:46:38.919Z,12.68
2022-10-29T16:49:06.937Z,14.05
2022-10-29T16:51:35.031Z,13.10
2022-10-29T16:54:03.173Z,13.70
2022-10-29T16:56:32.629Z,12.27
2022-10-29T16:59:02.039Z,13.40
2022-10-29T17:01:30.397Z,13.13
2022-10-29T17:03:58.812Z,12.70
2022-10-29T17:06:27.092Z,13.02
2022-10-29T17:08:55.113Z,11.68
2022-10-29T17:11:23.212Z,13.55
2022-10-29T17:13:52.590Z,12.57
2022-10-29T17:16:20.708Z,12.95
2022-10-29T17:18:50.760Z,14.40
2022-10-29T17:21:19.243Z,12.10
2022-10-29T17:23:47.275Z,12.27
2022-10-29T17:26:15.310Z,13.90
2022-10-29T17:28:43.328Z,13.48
2022-10-29T17:31:12.765Z,13.13
2022-10-29T17:33:41.144Z,12.93
2022-10-29T17:36:12.684Z,13.80
2022-10-29T17:38:40.681Z,15.25
2022-10-29T17:41:08.798Z,13.23
2022-10-29T17:43:36.787Z,13.10
2022-10-29T17:46:05.308Z,14.77
2022-10-29T17:48:34.848Z,13.90
2022-10-29T17:51:03.845Z,14.02
2022-10-29T17:53:32.789Z,13.38
2022-10-29T17:56:01.376Z,14.38
2022-10-29T17:58:30.996Z,13.65
2022-10-29T18:01:04.823Z,13.68
2022-10-29T18:03:34.662Z,19.90
2022-10-29T18:06:03.781Z,18.70
2022-10-29T18:08:32.298Z,27.45
2022-10-29T18:11:05.185Z,20.08
2022-10-29T18:13:34.946Z,15.20
2022-10-29T18:16:03.465Z,14.23
2022-10-29T18:18:48.077Z,14.05
2022-10-29T18:21:26.172Z,13.90
2022-10-29T18:23:54.214Z,13.32
2022-10-29T18:26:26.066Z,14.40
2022-10-29T18:28:55.763Z,13.70
2022-10-29T18:31:27.314Z,14.30
2022-10-29T18:33:57.005Z,13.82
2022-10-29T18:36:25.360Z,12.65
2022-10-29T18:38:54.591Z,12.75
2022-10-29T18:41:23.053Z,13.85
2022-10-29T18:43:52.031Z,12.98
2022-10-29T18:46:20.528Z,14.25
2022-10-29T18:48:49.515Z,13.02
2022-10-29T18:51:20.868Z,13.60
2022-10-29T18:53:49.022Z,12.27
2022-10-29T18:56:18.495Z,14.57
2022-10-29T18:58:47.235Z,14.23
2022-10-29T19:01:17.896Z,13.27
2022-10-29T19:03:50.704Z,13.52
2022-10-29T19:06:21.936Z,13.32
2022-10-29T19:08:50.427Z,14.05
2022-10-29T19:11:20.449Z,12.43
2022-10-29T19:13:51.744Z,12.45
2022-10-29T19:16:20.504Z,13.18
2022-10-29T19:18:48.946Z,14.98
2022-10-29T19:21:19.209Z,14.27
2022-10-29T19:23:48.872Z,13.82
2022-10-29T19:26:18.885Z,15.00
2022-10-29T19:28:47.960Z,13.18
2022-10-29T19:31:17.554Z,13.23
2022-10-29T19:33:48.635Z,13.50
2022-10-29T19:36:16.876Z,13.50
2022-10-29T19:38:45.377Z,14.73
2022-10-29T19:41:15.393Z,14.10
2022-10-29T19:43:44.047Z,13.63
2022-10-29T19:46:14.054Z,14.38
2022-10-29T19:48:42.838Z,15.00
2022-10-29T19:51:12.151Z,14.35
2022-10-29T19:53:40.409Z,13.73
2022-10-29T19:56:11.578Z,15.77
2022-10-29T19:58:41.337Z,14.43
2022-10-29T20:01:12.971Z,14.30
2022-10-29T20:03:41.279Z,14.35
2022-10-29T20:06:09.650Z,13.93
2022-10-29T20:08:38.272Z,15.65
2022-10-29T20:11:07.027Z,14.00
2022-10-29T20:13:35.303Z,14.10
2022-10-29T20:16:10.165Z,14.85
2022-10-29T20:18:39.090Z,14.73
2022-10-29T20:21:08.180Z,14.02
2022-10-29T20:23:36.572Z,14.35
2022-10-29T20:26:05.528Z,13.85
2022-10-29T20:28:33.785Z,15.18
2022-10-29T20:31:14.452Z,13.40
2022-10-29T20:33:42.576Z,15.07
2022-10-29T20:36:10.774Z,14.82
2022-10-29T20:38:39.044Z,13.38
2022-10-29T20:41:07.138Z,14.02
2022-10-29T20:43:35.277Z,14.13
2022-10-29T20:46:04.056Z,14.45
2022-10-29T20:48:36.270Z,14.48
2022-10-29T20:51:04.873Z,12.70
2022-10-29T20:53:32.997Z,14.48
2022-10-29T20:56:01.140Z,14.38
2022-10-29T20:58:29.396Z,14.63
2022-10-29T21:01:04.744Z,14.75
2022-10-29T21:03:34.187Z,13.60
2022-10-29T21:06:03.556Z,13.23
2022-10-29T21:08:31.934Z,13.25
2022-10-29T21:11:00.844Z,13.77
2022-10-29T21:13:29.704Z,14.27
2022-10-29T21:16:04.589Z,14.77
2022-10-29T21:18:37.919Z,14.73
2022-10-29T21:21:06.728Z,14.67
2022-10-29T21:23:37.093Z,13.88
2022-10-29T21:26:05.506Z,12.88
2022-10-29T21:28:34.152Z,14.23
2022-10-29T21:31:02.276Z,13.52
2022-10-29T21:33:30.345Z,14.48
2022-10-29T21:36:00.281Z,13.50
2022-10-29T21:38:29.323Z,13.57
2022-10-29T21:40:57.333Z,13.43
2022-10-29T21:43:25.592Z,13.60
2022-10-29T21:45:53.711Z,13.90
2022-10-29T21:48:22.333Z,12.20
2022-10-29T21:50:50.348Z,13.90
2022-10-29T21:53:19.708Z,12.38
2022-10-29T21:55:48.013Z,12.50
2022-10-29T21:58:16.023Z,14.32
2022-10-29T22:00:44.120Z,13.15
2022-10-29T22:03:12.073Z,12.77
2022-10-29T22:05:40.216Z,12.65
2022-10-29T22:08:08.218Z,12.60
2022-10-29T22:10:37.587Z,12.82
2022-10-29T22:13:11.959Z,13.63
2022-10-29T22:15:45.321Z,12.98
2022-10-29T22:18:13.542Z,12.70
2022-10-29T22:20:41.534Z,11.48
2022-10-29T22:23:09.697Z,12.80
2022-10-29T22:25:39.303Z,12.40
2022-10-29T22:28:07.480Z,11.05
2022-10-29T22:30:35.727Z,12.10
2022-10-29T22:33:03.714Z,12.70
2022-10-29T22:35:33.448Z,12.50
2022-10-29T22:38:01.671Z,11.75
2022-10-29T22:40:29.591Z,11.70
2022-10-29T22:42:59.321Z,10.55
2022-10-29T22:45:27.649Z,10.85
2022-10-29T22:47:55.665Z,11.45
2022-10-29T22:50:23.823Z,12.55
2022-10-29T22:52:51.847Z,11.70
2022-10-29T22:55:20.136Z,10.77
2022-10-29T22:57:48.128Z,11.20
2022-10-29T23:00:18.039Z,12.25
2022-10-29T23:02:46.276Z,11.63
2022-10-29T23:05:14.367Z,11.38
2022-10-29T23:07:42.387Z,11.88
2022-10-29T23:10:11.038Z,10.68
2022-10-29T23:12:39.297Z,12.20
2022-10-29T23:15:08.675Z,11.32
2022-10-29T23:17:38.108Z,12.15
2022-10-29T23:20:06.612Z,10.98
2022-10-29T23:22:34.808Z,11.93
2022-10-29T23:25:02.912Z,11.98
2022-10-29T23:27:30.889Z,11.35
2022-10-29T23:29:58.978Z,12.50
2022-10-29T23:32:27.046Z,12.07
2022-10-29T23:34:56.580Z,11.63
2022-10-29T23:37:24.590Z,12.57
2022-10-29T23:39:52.678Z,12.02
2022-10-29T23:42:21.036Z,12.57
2022-10-29T23:44:49.046Z,13.25
2022-10-29T23:47:17.236Z,11.93
2022-10-29T23:49:45.264Z,13.02
2022-10-29T23:52:16.464Z,12.65
2022-10-29T23:54:44.563Z,12.82
2022-10-29T23:57:12.722Z,13.43
2022-10-29T23:59:41.601Z,11.95
